createdAt,value
2022-11-21T00:01:19.713Z,142.80
2022-11-21T00:03:48.040Z,141.27
2022-11-21T00:06:16.821Z,141.93
2022-11-21T00:08:46.358Z,137.60
2022-11-21T00:11:14.597Z,128.53
2022-11-21T00:13:42.922Z,122.67
2022-11-21T00:16:13.970Z,124.60
2022-11-21T00:18:42.458Z,123.23
2022-11-21T00:21:14.552Z,127.70
2022-11-21T00:23:42.742Z,128.10
2022-11-21T00:26:13.454Z,124.67
2022-11-21T00:28:41.677Z,127.67
2022-11-21T00:31:09.700Z,128.13
2022-11-21T00:33:39.240Z,129.83
2022-11-21T00:36:09.152Z,133.03
2022-11-21T00:38:37.722Z,126.33
2022-11-21T00:41:05.953Z,135.80
2022-11-21T00:43:35.478Z,134.47
2022-11-21T00:46:04.413Z,133.80
2022-11-21T00:48:33.608Z,132.47
2022-11-21T00:51:01.896Z,131.80
2022-11-21T00:53:30.485Z,134.53
2022-11-21T00:55:58.956Z,133.43
2022-11-21T00:58:27.029Z,135.60
2022-11-21T01:01:03.807Z,138.70
2022-11-21T01:03:33.725Z,129.77
2022-11-21T01:06:06.848Z,124.77
2022-11-21T01:08:39.183Z,128.13
2022-11-21T01:11:08.944Z,130.23
2022-11-21T01:13:37.885Z,131.00
2022-11-21T01:16:09.692Z,135.10
2022-11-21T01:18:38.295Z,139.03
2022-11-21T01:21:08.427Z,138.13
2022-11-21T01:23:36.452Z,136.67
2022-11-21T01:26:04.731Z,138.10
2022-11-21T01:28:33.208Z,133.20
2022-11-21T01:31:05.843Z,135.20
2022-11-21T01:33:35.253Z,140.23
2022-11-21T01:36:14.172Z,138.60
2022-11-21T01:38:43.739Z,140.47
2022-11-21T01:41:13.326Z,133.53
2022-11-21T01:43:41.627Z,138.33
2022-11-21T01:46:13.751Z,136.77
2022-11-21T01:48:47.166Z,135.63
2022-11-21T01:51:22.281Z,136.90
2022-11-21T01:53:55.251Z,136.90
2022-11-21T01:56:25.319Z,135.80
2022-11-21T01:58:57.554Z,139.90
2022-11-21T02:01:25.809Z,135.60
2022-11-21T02:03:57.855Z,138.83
2022-11-21T02:06:26.796Z,137.67
2022-11-21T02:08:55.066Z,135.47
2022-11-21T02:11:31.780Z,138.90
2022-11-21T02:14:00.844Z,136.00
2022-11-21T02:16:29.783Z,134.20
2022-11-21T02:18:59.153Z,135.83
2022-11-21T02:21:40.417Z,135.67
2022-11-21T02:24:15.498Z,134.10
2022-11-21T02:26:47.798Z,134.10
2022-11-21T02:29:15.994Z,133.40
2022-11-21T02:31:44.067Z,137.17
2022-11-21T02:34:11.939Z,130.87
2022-11-21T02:36:45.483Z,127.90
2022-11-21T02:39:19.957Z,131.13
2022-11-21T02:41:57.139Z,126.60
2022-11-21T02:44:30.611Z,127.17
2022-11-21T02:46:58.556Z,126.30
2022-11-21T02:49:35.819Z,128.33
2022-11-21T02:52:03.727Z,128.20
2022-11-21T02:54:31.693Z,131.07
2022-11-21T02:57:01.018Z,130.60
2022-11-21T02:59:29.028Z,139.30
2022-11-21T03:01:59.766Z,134.50
2022-11-21T03:04:27.927Z,131.83
2022-11-21T03:06:56.025Z,134.43
2022-11-21T03:09:23.927Z,135.57
2022-11-21T03:11:51.881Z,128.30
2022-11-21T03:14:21.129Z,130.17
2022-11-21T03:16:49.069Z,131.93
2022-11-21T03:19:17.133Z,146.30
2022-11-21T03:21:45.147Z,146.70
2022-11-21T03:24:13.138Z,149.73
2022-11-21T03:26:41.011Z,139.30
2022-11-21T03:29:09.315Z,154.00
2022-11-21T03:31:38.629Z,149.33
2022-11-21T03:34:06.569Z,143.30
2022-11-21T03:36:34.673Z,145.03
2022-11-21T03:39:02.611Z,141.23
2022-11-21T03:41:30.590Z,141.37
2022-11-21T03:43:59.443Z,149.17
2022-11-21T03:46:27.853Z,165.67
2022-11-21T03:48:57.458Z,147.60
2022-11-21T03:51:25.559Z,302.63
2022-11-21T03:53:53.507Z,313.27
2022-11-21T03:56:21.684Z,205.63
2022-11-21T03:58:49.547Z,165.93
2022-11-21T04:01:18.111Z,143.30
2022-11-21T04:03:46.982Z,184.53
2022-11-21T04:06:19.877Z,142.40
2022-11-21T04:08:48.087Z,144.37
2022-11-21T04:11:16.303Z,152.80
2022-11-21T04:13:44.266Z,160.90
2022-11-21T04:16:12.187Z,143.07
2022-11-21T04:18:40.089Z,143.00
2022-11-21T04:21:09.242Z,142.37
2022-11-21T04:23:38.680Z,151.63
2022-11-21T04:26:06.698Z,147.20
2022-11-21T04:28:34.649Z,169.10
2022-11-21T04:31:10.857Z,162.90
2022-11-21T04:33:39.349Z,255.30
2022-11-21T04:36:08.011Z,161.87
2022-11-21T04:38:36.149Z,167.67
2022-11-21T04:41:05.875Z,146.53
2022-11-21T04:43:33.824Z,148.03
2022-11-21T04:46:01.681Z,145.13
2022-11-21T04:48:29.694Z,143.10
2022-11-21T04:50:57.602Z,145.97
2022-11-21T04:53:25.580Z,145.87
2022-11-21T04:55:53.592Z,142.30
2022-11-21T04:58:22.852Z,148.97
2022-11-21T05:00:50.943Z,140.30
2022-11-21T05:03:18.962Z,145.47
2022-11-21T05:05:48.707Z,149.27
2022-11-21T05:08:16.643Z,152.23
2022-11-21T05:11:02.445Z,155.47
2022-11-21T05:13:31.741Z,149.40
2022-11-21T05:15:59.798Z,147.13
2022-11-21T05:18:27.719Z,142.63
2022-11-21T05:20:55.707Z,149.33
2022-11-21T05:23:23.676Z,145.60
2022-11-21T05:25:51.670Z,147.00
2022-11-21T05:28:19.823Z,138.13
2022-11-21T05:30:49.105Z,146.87
2022-11-21T05:33:17.094Z,147.87
2022-11-21T05:35:45.062Z,136.33
2022-11-21T05:38:13.362Z,143.67
2022-11-21T05:40:41.480Z,142.30
2022-11-21T05:43:29.866Z,148.50
2022-11-21T05:45:59.306Z,135.87
2022-11-21T05:48:27.222Z,143.47
2022-11-21T05:50:55.595Z,156.33
2022-11-21T05:53:23.579Z,152.37
2022-11-21T05:55:51.512Z,131.70
2022-11-21T05:58:19.411Z,133.03
2022-11-21T06:00:47.336Z,133.43
2022-11-21T06:03:27.638Z,131.97
2022-11-21T06:06:03.910Z,142.30
2022-11-21T06:08:33.687Z,150.87
2022-11-21T06:11:01.863Z,135.43
2022-11-21T06:13:30.196Z,153.93
2022-11-21T06:16:01.791Z,170.67
2022-11-21T06:18:34.065Z,141.50
2022-11-21T06:21:03.270Z,139.27
2022-11-21T06:23:31.491Z,144.57
2022-11-21T06:26:00.459Z,136.80
2022-11-21T06:28:29.210Z,144.70
2022-11-21T06:30:57.119Z,148.43
2022-11-21T06:33:25.065Z,134.63
2022-11-21T06:35:54.369Z,139.37
2022-11-21T06:38:22.313Z,139.37
2022-11-21T06:40:50.227Z,142.20
2022-11-21T06:43:18.198Z,154.20
2022-11-21T06:45:46.210Z,141.20
2022-11-21T06:48:14.094Z,144.03
2022-11-21T06:50:42.068Z,138.90
2022-11-21T06:53:11.296Z,184.33
2022-11-21T06:55:39.241Z,228.50
2022-11-21T06:58:07.392Z,143.53
2022-11-21T07:00:35.521Z,306.40
2022-11-21T07:03:04.417Z,298.30
2022-11-21T07:05:32.624Z,221.00
2022-11-21T07:08:00.705Z,162.30
2022-11-21T07:10:31.478Z,287.73
2022-11-21T07:13:25.616Z,152.07
2022-11-21T07:15:55.116Z,220.93
2022-11-21T07:18:24.650Z,130.17
2022-11-21T07:20:52.508Z,237.00
2022-11-21T07:23:20.577Z,305.30
2022-11-21T07:25:49.891Z,143.70
2022-11-21T07:28:17.771Z,132.10
2022-11-21T07:30:45.646Z,148.47
2022-11-21T07:33:13.588Z,127.50
2022-11-21T07:35:42.992Z,132.10
2022-11-21T07:38:10.908Z,134.40
2022-11-21T07:40:38.896Z,131.57
2022-11-21T07:43:10.948Z,128.83
2022-11-21T07:45:39.844Z,121.77
2022-11-21T07:48:08.832Z,121.50
2022-11-21T07:50:37.283Z,120.97
2022-11-21T07:53:06.924Z,120.57
2022-11-21T07:55:40.314Z,120.30
2022-11-21T07:58:16.415Z,115.97
2022-11-21T08:00:44.867Z,114.93
2022-11-21T08:03:14.207Z,112.53
2022-11-21T08:05:43.628Z,110.83
2022-11-21T08:08:12.946Z,115.60
2022-11-21T08:10:42.476Z,109.80
2022-11-21T08:13:12.095Z,106.43
2022-11-21T08:15:40.050Z,108.27
2022-11-21T08:18:09.190Z,100.77
2022-11-21T08:20:37.284Z,104.10
2022-11-21T08:23:06.171Z,102.67
2022-11-21T08:25:34.141Z,99.67
2022-11-21T08:28:02.857Z,99.80
2022-11-21T08:30:32.894Z,100.70
2022-11-21T08:33:01.215Z,97.20
2022-11-21T08:35:30.195Z,97.63
2022-11-21T08:37:58.327Z,92.40
2022-11-21T08:40:26.763Z,94.47
2022-11-21T08:42:58.353Z,94.67
2022-11-21T08:45:27.039Z,91.87
2022-11-21T08:47:56.738Z,94.30
2022-11-21T08:50:25.252Z,93.33
2022-11-21T08:52:53.245Z,89.37
2022-11-21T08:55:23.145Z,90.17
2022-11-21T08:57:51.136Z,90.70
2022-11-21T09:00:19.308Z,87.13
2022-11-21T09:02:47.201Z,88.87
2022-11-21T09:05:16.719Z,86.60
2022-11-21T09:07:44.647Z,87.63
2022-11-21T09:10:12.867Z,83.70
2022-11-21T09:12:40.920Z,82.83
2022-11-21T09:15:29.178Z,82.10
2022-11-21T09:18:08.194Z,79.77
2022-11-21T09:20:42.481Z,80.23
2022-11-21T09:23:12.426Z,80.23
2022-11-21T09:25:40.956Z,82.23
2022-11-21T09:28:11.299Z,79.90
2022-11-21T09:30:40.093Z,77.80
2022-11-21T09:33:09.502Z,80.27
2022-11-21T09:35:37.775Z,77.00
2022-11-21T09:38:07.218Z,78.10
2022-11-21T09:40:36.351Z,77.03
2022-11-21T09:43:20.002Z,76.10
2022-11-21T09:45:49.656Z,73.63
2022-11-21T09:48:22.753Z,74.60
2022-11-21T09:50:56.061Z,69.53
2022-11-21T09:53:29.420Z,70.93
2022-11-21T09:56:00.741Z,74.87
2022-11-21T09:58:36.360Z,71.23
2022-11-21T10:01:04.461Z,73.30
2022-11-21T10:03:38.759Z,71.07
2022-11-21T10:06:18.619Z,71.87
2022-11-21T10:09:00.678Z,71.13
2022-11-21T10:12:01.780Z,69.60
2022-11-21T10:14:50.141Z,68.57
2022-11-21T10:17:26.175Z,67.93
2022-11-21T10:20:08.893Z,65.27
2022-11-21T10:22:51.533Z,63.43
2022-11-21T10:25:27.125Z,64.33
2022-11-21T10:27:58.663Z,63.73
2022-11-21T10:30:26.747Z,61.00
2022-11-21T10:32:58.262Z,59.27
2022-11-21T10:35:30.333Z,58.37
2022-11-21T10:38:01.703Z,58.23
2022-11-21T10:40:36.949Z,59.47
2022-11-21T10:43:27.795Z,58.90
2022-11-21T10:45:56.016Z,59.17
2022-11-21T10:48:23.937Z,58.47
2022-11-21T10:51:07.830Z,56.57
2022-11-21T10:53:53.143Z,57.27
2022-11-21T10:56:24.288Z,57.30
2022-11-21T10:58:54.280Z,57.07
2022-11-21T11:01:24.846Z,55.43
2022-11-21T11:04:26.603Z,56.43
2022-11-21T11:06:56.445Z,58.30
2022-11-21T11:09:28.378Z,57.73
2022-11-21T11:12:23.679Z,55.77
2022-11-21T11:14:53.669Z,58.10
2022-11-21T11:17:29.818Z,57.50
2022-11-21T11:20:02.274Z,57.07
2022-11-21T11:22:31.375Z,57.37
2022-11-21T11:25:01.039Z,57.63
2022-11-21T11:27:30.891Z,56.63
2022-11-21T11:30:07.861Z,57.00
2022-11-21T11:32:40.982Z,58.27
2022-11-21T11:35:22.910Z,60.30
2022-11-21T11:38:01.417Z,57.73
2022-11-21T11:40:33.997Z,59.53
2022-11-21T11:43:41.282Z,56.43
2022-11-21T11:46:53.116Z,57.83
2022-11-21T11:49:32.019Z,59.53
2022-11-21T11:52:05.043Z,60.17
2022-11-21T11:54:41.064Z,58.53
2022-11-21T11:57:11.204Z,59.40
2022-11-21T11:59:46.965Z,58.83
2022-11-21T12:02:19.685Z,59.93
2022-11-21T12:04:52.190Z,58.23
2022-11-21T12:10:19.223Z,58.13
2022-11-21T12:12:51.804Z,57.70
2022-11-21T12:15:42.559Z,59.70
2022-11-21T12:18:17.322Z,62.70
2022-11-21T12:20:55.274Z,60.63
2022-11-21T12:23:26.224Z,58.10
2022-11-21T12:26:07.901Z,57.57
2022-11-21T12:28:46.999Z,60.67
2022-11-21T12:31:25.658Z,54.73
2022-11-21T12:34:15.631Z,56.10
2022-11-21T12:36:47.989Z,57.00
2022-11-21T12:39:36.392Z,57.17
2022-11-21T12:42:30.766Z,57.53
2022-11-21T12:45:29.093Z,57.73
2022-11-21T12:48:34.308Z,57.23
2022-11-21T12:51:36.800Z,59.00
2022-11-21T12:54:33.322Z,58.50
2022-11-21T12:57:09.354Z,60.37
2022-11-21T12:59:47.967Z,58.80
2022-11-21T13:02:28.122Z,58.40
2022-11-21T13:04:59.587Z,56.57
2022-11-21T13:07:30.786Z,56.30
2022-11-21T13:10:02.192Z,55.83
2022-11-21T13:12:40.136Z,55.53
2022-11-21T13:15:19.923Z,55.37
2022-11-21T13:17:53.783Z,55.30
2022-11-21T13:20:32.797Z,57.17
2022-11-21T13:23:06.479Z,55.07
2022-11-21T13:25:47.403Z,53.13
2022-11-21T13:28:33.704Z,55.10
2022-11-21T13:31:04.053Z,53.20
2022-11-21T13:33:53.898Z,54.97
2022-11-21T13:36:40.388Z,52.80
2022-11-21T13:39:39.159Z,55.63
2022-11-21T13:42:32.291Z,53.07
2022-11-21T13:45:20.818Z,52.27
2022-11-21T13:48:17.218Z,50.83
2022-11-21T13:51:04.171Z,50.87
2022-11-21T13:54:07.498Z,50.03
2022-11-21T13:56:47.156Z,52.03
2022-11-21T13:59:39.239Z,50.13
2022-11-21T14:02:41.785Z,50.33
2022-11-21T14:05:37.663Z,51.20
2022-11-21T14:08:20.383Z,50.43
2022-11-21T14:10:49.736Z,49.40
2022-11-21T14:13:24.589Z,50.07
2022-11-21T14:16:05.623Z,51.00
2022-11-21T14:18:34.170Z,52.83
2022-11-21T14:21:04.764Z,50.37
2022-11-21T14:23:35.366Z,51.10
2022-11-21T14:26:05.926Z,49.77
2022-11-21T14:28:36.245Z,49.93
2022-11-21T14:31:06.661Z,51.00
2022-11-21T14:33:36.454Z,49.83
2022-11-21T14:36:07.612Z,50.47
2022-11-21T14:38:41.941Z,50.87
2022-11-21T14:41:24.857Z,50.67
2022-11-21T14:44:07.906Z,50.97
2022-11-21T14:46:37.761Z,49.63
2022-11-21T14:49:20.598Z,50.93
2022-11-21T14:51:50.350Z,49.40
2022-11-21T14:54:21.105Z,51.67
2022-11-21T14:56:55.550Z,49.13
2022-11-21T14:59:27.257Z,52.10
2022-11-21T15:02:01.207Z,51.47
2022-11-21T15:04:32.696Z,52.30
2022-11-21T15:07:02.778Z,54.17
2022-11-21T15:10:26.699Z,50.93
2022-11-21T15:12:25.240Z,52.23
2022-11-21T15:14:57.884Z,54.53
2022-11-21T15:17:27.505Z,53.57
2022-11-21T15:20:11.367Z,56.33
2022-11-21T15:22:42.318Z,56.17
2022-11-21T15:25:17.281Z,55.10
2022-11-21T15:27:47.214Z,57.33
2022-11-21T15:30:29.182Z,55.60
2022-11-21T15:33:02.255Z,56.37
2022-11-21T15:35:40.600Z,56.53
2022-11-21T15:38:17.589Z,57.80
2022-11-21T15:40:59.925Z,59.10
2022-11-21T15:43:36.099Z,59.37
2022-11-21T15:46:11.457Z,56.80
2022-11-21T15:48:47.109Z,58.67
2022-11-21T15:51:15.952Z,57.07
2022-11-21T15:53:44.027Z,59.47
2022-11-21T15:56:21.364Z,59.23
2022-11-21T15:58:51.025Z,60.13
2022-11-21T16:01:22.306Z,59.13
2022-11-21T16:03:52.079Z,62.63
2022-11-21T16:06:21.459Z,60.60
2022-11-21T16:08:49.648Z,61.23
2022-11-21T16:11:23.638Z,63.67
2022-11-21T16:13:51.761Z,61.47
2022-11-21T16:16:22.704Z,63.30
2022-11-21T16:18:50.853Z,62.00
2022-11-21T16:21:19.109Z,62.27
2022-11-21T16:23:48.079Z,66.00
2022-11-21T16:26:16.059Z,66.60
2022-11-21T16:28:44.023Z,66.93
2022-11-21T16:31:19.978Z,70.20
2022-11-21T16:33:49.420Z,65.03
2022-11-21T16:36:20.954Z,65.67
2022-11-21T16:38:49.006Z,64.60
2022-11-21T16:41:18.777Z,67.73
2022-11-21T16:43:48.117Z,70.10
2022-11-21T16:46:16.463Z,69.30
2022-11-21T16:48:44.390Z,68.07
2022-11-21T16:51:15.553Z,66.50
2022-11-21T16:53:44.097Z,63.93
2022-11-21T16:56:12.461Z,66.47
2022-11-21T16:58:42.277Z,67.87
2022-11-21T17:01:13.018Z,67.87
2022-11-21T17:03:42.135Z,68.83
2022-11-21T17:06:10.613Z,68.27
2022-11-21T17:08:40.169Z,67.87
2022-11-21T17:11:15.482Z,67.43
2022-11-21T17:13:43.808Z,74.60
2022-11-21T17:16:13.278Z,72.83
2022-11-21T17:18:41.803Z,75.40
2022-11-21T17:21:11.668Z,73.37
2022-11-21T17:23:43.587Z,73.20
2022-11-21T17:26:13.625Z,76.57
2022-11-21T17:28:45.608Z,70.67
2022-11-21T17:31:16.004Z,74.57
2022-11-21T17:33:47.052Z,72.57
2022-11-21T17:36:16.058Z,71.93
2022-11-21T17:38:47.134Z,72.40
2022-11-21T17:41:17.501Z,70.70
2022-11-21T17:43:47.150Z,68.90
2022-11-21T17:46:17.925Z,67.27
2022-11-21T17:48:53.019Z,69.10
2022-11-21T17:51:25.570Z,58.33
2022-11-21T17:53:55.377Z,55.80
2022-11-21T17:56:25.680Z,56.10
2022-11-21T17:58:53.969Z,55.87
2022-11-21T18:01:22.542Z,55.73
2022-11-21T18:03:55.920Z,52.80
2022-11-21T18:06:24.490Z,54.80
2022-11-21T18:08:54.134Z,58.30
2022-11-21T18:11:23.145Z,53.67
2022-11-21T18:13:51.452Z,55.43
2022-11-21T18:16:21.325Z,53.83
2022-11-21T18:18:50.581Z,56.87
2022-11-21T18:21:20.573Z,60.77
2022-11-21T18:23:48.941Z,66.83
2022-11-21T18:26:21.220Z,63.40
2022-11-21T18:29:06.864Z,65.47
2022-11-21T18:31:38.469Z,64.90
2022-11-21T18:34:07.534Z,63.80
2022-11-21T18:36:36.154Z,60.60
2022-11-21T18:39:12.258Z,59.80
2022-11-21T18:41:44.554Z,62.23
2022-11-21T18:44:20.077Z,59.63
2022-11-21T18:46:49.582Z,57.23
2022-11-21T18:49:17.994Z,57.33
2022-11-21T18:51:46.104Z,58.80
2022-11-21T18:54:14.047Z,60.03
2022-11-21T18:56:43.477Z,57.70
2022-11-21T18:59:11.433Z,56.17
2022-11-21T19:01:40.465Z,59.30
2022-11-21T19:04:09.456Z,60.67
2022-11-21T19:06:37.458Z,65.07
2022-11-21T19:09:05.815Z,68.33
2022-11-21T19:11:33.767Z,65.13
2022-11-21T19:14:03.203Z,67.03
2022-11-21T19:16:34.294Z,71.30
2022-11-21T19:19:33.233Z,72.27
2022-11-21T19:21:50.884Z,70.17
2022-11-21T19:24:19.537Z,68.23
2022-11-21T19:26:50.459Z,65.90
2022-11-21T19:29:20.135Z,68.03
2022-11-21T19:31:48.346Z,68.50
2022-11-21T19:34:17.146Z,69.43
2022-11-21T19:36:45.738Z,70.00
2022-11-21T19:39:14.287Z,85.23
2022-11-21T19:41:42.517Z,88.83
2022-11-21T19:44:11.530Z,70.53
2022-11-21T19:46:41.213Z,73.47
2022-11-21T19:49:12.019Z,68.40
2022-11-21T19:51:42.719Z,68.80
2022-11-21T19:54:13.244Z,71.83
2022-11-21T19:56:41.526Z,84.27
2022-11-21T19:59:13.372Z,78.77
2022-11-21T20:01:44.833Z,74.07
2022-11-21T20:04:14.935Z,85.20
2022-11-21T20:06:46.018Z,77.27
2022-11-21T20:09:15.726Z,71.67
2022-11-21T20:11:45.675Z,75.57
2022-11-21T20:14:20.933Z,70.63
2022-11-21T20:16:53.244Z,70.33
2022-11-21T20:19:24.094Z,70.30
2022-11-21T20:21:52.823Z,70.83
2022-11-21T20:24:20.962Z,73.13
2022-11-21T20:26:48.951Z,71.50
2022-11-21T20:29:17.283Z,65.40
2022-11-21T20:31:45.351Z,60.10
2022-11-21T20:34:15.292Z,62.70
2022-11-21T20:36:44.300Z,70.20
2022-11-21T20:39:15.323Z,70.73
2022-11-21T20:41:45.455Z,66.43
2022-11-21T20:47:03.585Z,69.87
2022-11-21T20:49:33.086Z,66.37
2022-11-21T20:54:49.243Z,66.63
2022-11-21T20:57:17.173Z,60.63
2022-11-21T20:59:45.054Z,61.97
2022-11-21T21:02:14.177Z,65.60
2022-11-21T21:04:43.935Z,55.53
2022-11-21T21:07:12.000Z,67.43
2022-11-21T21:09:40.129Z,66.40
2022-11-21T21:12:08.320Z,45.03
2022-11-21T21:14:36.444Z,67.77
2022-11-21T21:17:04.416Z,82.50
2022-11-21T21:19:32.652Z,65.63
2022-11-21T21:22:02.201Z,62.97
2022-11-21T21:24:30.226Z,62.13
2022-11-21T21:26:59.037Z,56.03
2022-11-21T21:29:27.392Z,58.53
2022-11-21T21:31:55.577Z,57.00
2022-11-21T21:34:24.387Z,59.63
2022-11-21T21:36:52.611Z,66.00
2022-11-21T21:39:22.001Z,59.60
2022-11-21T21:41:50.023Z,57.13
2022-11-21T21:44:18.007Z,59.33
2022-11-21T21:46:46.310Z,59.43
2022-11-21T21:49:14.569Z,59.50
2022-11-21T21:51:42.640Z,59.17
2022-11-21T21:54:18.914Z,61.57
2022-11-21T21:56:48.883Z,64.57
2022-11-21T21:59:18.228Z,61.73
2022-11-21T22:01:46.863Z,60.10
2022-11-21T22:04:14.935Z,62.37
2022-11-21T22:06:42.878Z,63.77
2022-11-21T22:09:10.937Z,64.87
2022-11-21T22:11:39.789Z,64.17
2022-11-21T22:14:12.753Z,66.00
2022-11-21T22:16:41.260Z,66.33
2022-11-21T22:19:09.779Z,66.10
2022-11-21T22:21:38.687Z,67.00
2022-11-21T22:24:28.503Z,66.80
2022-11-21T22:26:56.682Z,67.00
2022-11-21T22:29:26.246Z,62.53
2022-11-21T22:31:54.160Z,65.43
2022-11-21T22:34:22.263Z,65.80
2022-11-21T22:36:50.168Z,68.23
2022-11-21T22:39:18.287Z,65.90
2022-11-21T22:41:46.326Z,66.17
2022-11-21T22:44:14.413Z,68.67
2022-11-21T22:46:43.699Z,63.80
2022-11-21T22:49:11.775Z,63.83
2022-11-21T22:51:39.698Z,65.20
2022-11-21T22:54:07.660Z,63.43
2022-11-21T22:56:35.590Z,62.60
2022-11-21T22:59:03.515Z,66.23
2022-11-21T23:01:33.812Z,68.00
2022-11-21T23:04:03.299Z,76.67
2022-11-21T23:06:31.372Z,77.43
2022-11-21T23:08:59.324Z,76.63
2022-11-21T23:11:29.020Z,77.17
2022-11-21T23:13:58.155Z,86.30
2022-11-21T23:16:26.981Z,84.40
2022-11-21T23:18:55.448Z,85.23
2022-11-21T23:21:24.926Z,92.10
2022-11-21T23:23:52.784Z,93.73
2022-11-21T23:26:21.124Z,94.73
2022-11-21T23:28:49.121Z,91.57
2022-11-21T23:31:17.309Z,90.13
2022-11-21T23:33:45.494Z,90.47
2022-11-21T23:36:13.427Z,93.03
2022-11-21T23:38:42.754Z,93.67
2022-11-21T23:41:10.906Z,91.83
2022-11-21T23:43:38.788Z,90.83
2022-11-21T23:46:06.821Z,90.50
2022-11-21T23:48:34.821Z,93.00
2022-11-21T23:51:02.737Z,92.73
2022-11-21T23:53:30.700Z,91.27
2022-11-21T23:56:00.041Z,92.87
2022-11-21T23:58:28.047Z,94.27
